East Thetford, Vermont
Current Conditions -  °F | °C
As of 9:53 AM on Wednesday 26 Nov 2014 (Local Time) from KLEB Reporting Station
Overcast Overcast  
Wind Chill: 32°   Ceiling: 10000
Heat Index: 37°   Visibility: 10mi
Dew Point: 24°   Wind: 6mph
Humidity: 59%   Direction: NA
Pressure: 30.18"   Gusts: NA
Location:  43.81°N, 72.19°W
Report Text: KLEB 261453Z VRB05KT 10SM BKN100 OVC120 03/M04 A3018 RMK AO2 SLP227 T00281044 58005
Loading
Personal Weather Stations






























Interactive Weather Map New forecast layout! Learn more

10-Day Weather Forecast

Advertisements
Track Severe Weather on mobile